Jeffrey's Bay, South Africa
Current Conditions -  °F | °C
As of 11:00 AM on Friday 19 Dec 2014 (Local Time) from FAPE Reporting Station
Few Clouds Few Clouds  
Wind Chill: 73°   Ceiling: Unl
Heat Index: 73°   Visibility: 6mi
Dew Point: 61°   Wind: 16mph
Humidity: 65%   Direction: 220°SW
Pressure: 29.94"   Gusts: NA
Location:  34.05°S, 24.92°E
Report Text: FAPE 190900Z 22014KT 190V250 9999 FEW020 23/16 Q1014 NOSIG
Loading
Personal Weather Stations






























Interactive Weather Map New forecast layout! Learn more

10-Day Weather Forecast

Advertisements
Track Severe Weather on mobile